createdAt,value
2023-05-17T00:00:47.484Z,3.90
2023-05-17T00:03:13.627Z,3.20
2023-05-17T00:05:39.991Z,3.60
2023-05-17T00:08:06.088Z,4.20
2023-05-17T00:10:32.347Z,3.60
2023-05-17T00:12:58.594Z,3.40
2023-05-17T00:15:24.904Z,3.70
2023-05-17T00:17:51.172Z,3.50
2023-05-17T00:20:17.484Z,3.90
2023-05-17T00:22:45.574Z,3.30
2023-05-17T00:25:13.968Z,4.80
2023-05-17T00:27:40.165Z,3.90
2023-05-17T00:30:07.324Z,3.90
2023-05-17T00:32:33.616Z,4.10
2023-05-17T00:34:59.982Z,3.30
2023-05-17T00:37:29.050Z,3.20
2023-05-17T00:39:55.340Z,3.30
2023-05-17T00:42:24.574Z,3.40
2023-05-17T00:44:50.759Z,4.40
2023-05-17T00:47:16.860Z,4.30
2023-05-17T00:49:43.978Z,4.20
2023-05-17T00:52:10.503Z,3.80
2023-05-17T00:54:36.728Z,3.10
2023-05-17T00:57:04.129Z,3.80
2023-05-17T00:59:34.153Z,3.30
2023-05-17T01:02:00.583Z,4.10
2023-05-17T01:04:29.169Z,3.50
2023-05-17T01:06:55.736Z,4.20
2023-05-17T01:09:22.123Z,3.60
2023-05-17T01:12:11.622Z,3.70
2023-05-17T01:14:51.596Z,4.70
2023-05-17T01:17:25.279Z,4.00
2023-05-17T01:20:06.050Z,3.70
2023-05-17T01:22:39.879Z,3.00
2023-05-17T01:25:25.719Z,4.30
2023-05-17T01:27:57.245Z,3.70
2023-05-17T01:30:25.376Z,3.60
2023-05-17T01:32:53.098Z,3.60
2023-05-17T01:35:19.484Z,4.60
2023-05-17T01:37:45.899Z,4.00
2023-05-17T01:40:12.083Z,4.30
2023-05-17T01:42:39.873Z,4.40
2023-05-17T01:45:43.929Z,4.60
2023-05-17T01:48:49.695Z,4.20
2023-05-17T01:51:18.929Z,3.90
2023-05-17T01:53:54.609Z,4.80
2023-05-17T01:56:28.572Z,4.40
2023-05-17T01:58:56.882Z,4.50
2023-05-17T02:01:24.104Z,4.70
2023-05-17T02:03:50.821Z,4.00
2023-05-17T02:06:17.080Z,4.60
2023-05-17T02:08:43.246Z,4.70
2023-05-17T02:11:09.390Z,4.60
2023-05-17T02:13:35.734Z,5.50
2023-05-17T02:16:02.923Z,5.60
2023-05-17T02:18:30.165Z,4.90
2023-05-17T02:20:56.484Z,4.50
2023-05-17T02:23:24.442Z,5.10
2023-05-17T02:25:50.665Z,5.20
2023-05-17T02:28:16.892Z,5.00
2023-05-17T02:30:45.877Z,5.20
2023-05-17T02:33:12.166Z,4.90
2023-05-17T02:35:38.390Z,5.30
2023-05-17T02:38:04.688Z,4.30
2023-05-17T02:40:30.766Z,5.70
2023-05-17T02:42:56.903Z,5.20
2023-05-17T02:45:25.900Z,4.90
2023-05-17T02:47:54.846Z,5.20
2023-05-17T02:50:24.528Z,5.40
2023-05-17T02:52:50.686Z,4.30
2023-05-17T02:55:16.936Z,4.50
2023-05-17T02:57:43.077Z,4.40
2023-05-17T03:00:09.912Z,4.70
2023-05-17T03:02:36.407Z,4.10
2023-05-17T03:05:04.177Z,4.90
2023-05-17T03:07:30.386Z,5.20
2023-05-17T03:09:56.565Z,6.50
2023-05-17T03:12:22.692Z,5.50
2023-05-17T03:14:48.960Z,5.20
2023-05-17T03:17:17.665Z,5.50
2023-05-17T03:19:43.791Z,5.10
2023-05-17T03:22:10.286Z,5.00
2023-05-17T03:24:36.362Z,5.00
2023-05-17T03:27:02.594Z,5.40
2023-05-17T03:29:28.713Z,5.50
2023-05-17T03:31:54.943Z,5.10
2023-05-17T03:34:21.089Z,4.80
2023-05-17T03:36:47.312Z,5.10
2023-05-17T03:39:14.573Z,5.10
2023-05-17T03:41:41.605Z,5.40
2023-05-17T03:44:07.867Z,5.40
2023-05-17T03:46:34.097Z,4.40
2023-05-17T03:49:00.219Z,4.80
2023-05-17T03:51:26.438Z,4.70
2023-05-17T03:53:58.723Z,5.50
2023-05-17T03:56:25.159Z,4.90
2023-05-17T03:58:51.250Z,4.50
2023-05-17T04:01:19.643Z,4.50
2023-05-17T04:03:48.572Z,5.10
2023-05-17T04:06:15.713Z,5.00
2023-05-17T04:08:44.257Z,5.00
2023-05-17T04:11:12.502Z,3.80
2023-05-17T04:13:41.691Z,4.40
2023-05-17T04:16:08.850Z,3.50
2023-05-17T04:18:35.951Z,4.50
2023-05-17T04:21:03.039Z,4.10
2023-05-17T04:23:30.099Z,4.60
2023-05-17T04:25:57.879Z,4.70
2023-05-17T04:28:25.520Z,4.00
2023-05-17T04:30:52.418Z,3.70
2023-05-17T04:33:19.387Z,3.90
2023-05-17T04:35:48.374Z,4.00
2023-05-17T04:38:14.676Z,3.70
2023-05-17T04:40:41.914Z,4.30
2023-05-17T04:43:08.346Z,4.00
2023-05-17T04:45:34.894Z,4.40
2023-05-17T04:48:01.660Z,4.30
2023-05-17T04:50:27.877Z,3.90
2023-05-17T04:52:54.212Z,3.50
2023-05-17T04:55:20.517Z,3.70
2023-05-17T04:57:46.780Z,3.50
2023-05-17T05:00:15.114Z,3.30
2023-05-17T05:02:41.989Z,3.30
2023-05-17T05:05:11.326Z,3.80
2023-05-17T05:07:39.469Z,2.90
2023-05-17T05:10:08.128Z,4.00
2023-05-17T05:12:37.251Z,3.00
2023-05-17T05:15:03.898Z,3.30
2023-05-17T05:17:31.024Z,3.40
2023-05-17T05:19:57.747Z,5.50
2023-05-17T05:22:24.837Z,3.10
2023-05-17T05:24:51.603Z,2.70
2023-05-17T05:27:17.760Z,3.70
2023-05-17T05:29:48.643Z,2.70
2023-05-17T05:32:16.656Z,3.20
2023-05-17T05:34:42.889Z,2.70
2023-05-17T05:37:11.576Z,3.30
2023-05-17T05:39:37.678Z,2.90
2023-05-17T05:42:07.039Z,3.70
2023-05-17T05:44:33.280Z,3.30
2023-05-17T05:46:59.456Z,3.00
2023-05-17T05:49:26.807Z,3.50
2023-05-17T05:51:55.896Z,3.10
2023-05-17T05:54:22.359Z,2.80
2023-05-17T05:56:50.908Z,4.30
2023-05-17T05:59:17.061Z,2.90
2023-05-17T06:01:43.420Z,4.20
2023-05-17T06:04:09.584Z,3.20
2023-05-17T06:06:36.364Z,3.40
2023-05-17T06:09:03.641Z,3.10
2023-05-17T06:11:29.782Z,3.10
2023-05-17T06:13:55.888Z,2.80
2023-05-17T06:16:21.953Z,2.90
2023-05-17T06:18:51.038Z,3.00
2023-05-17T06:21:17.897Z,3.10
2023-05-17T06:23:44.115Z,2.60
2023-05-17T06:26:10.680Z,2.50
2023-05-17T06:28:37.695Z,2.50
2023-05-17T06:31:03.968Z,2.70
2023-05-17T06:33:30.504Z,3.20
2023-05-17T06:35:57.907Z,3.00
2023-05-17T06:38:24.893Z,3.10
2023-05-17T06:40:54.933Z,2.90
2023-05-17T06:43:21.708Z,3.20
2023-05-17T06:45:48.093Z,1.90
2023-05-17T06:48:15.107Z,2.30
2023-05-17T06:50:41.410Z,1.80
2023-05-17T06:53:07.808Z,2.40
2023-05-17T06:55:34.066Z,2.20
2023-05-17T06:58:00.449Z,3.00
2023-05-17T07:00:29.279Z,3.00
2023-05-17T07:02:56.149Z,2.50
2023-05-17T07:05:24.955Z,2.10
2023-05-17T07:07:51.874Z,1.90
2023-05-17T07:10:18.060Z,2.10
2023-05-17T07:12:47.136Z,1.40
2023-05-17T07:15:13.622Z,1.90
2023-05-17T07:17:40.361Z,1.90
2023-05-17T07:20:07.765Z,1.70
2023-05-17T07:22:34.161Z,1.60
2023-05-17T07:25:05.367Z,2.10
2023-05-17T07:27:31.650Z,2.00
2023-05-17T07:29:57.761Z,2.00
2023-05-17T07:32:23.988Z,1.70
2023-05-17T07:34:50.325Z,1.50
2023-05-17T07:37:16.986Z,2.40
2023-05-17T07:39:43.035Z,1.40
2023-05-17T07:42:09.208Z,1.60
2023-05-17T07:44:35.269Z,1.60
2023-05-17T07:47:01.693Z,1.70
2023-05-17T07:49:28.088Z,1.70
2023-05-17T07:51:55.113Z,1.40
2023-05-17T07:54:28.292Z,1.60
2023-05-17T07:56:55.033Z,1.40
2023-05-17T07:59:24.557Z,1.60
2023-05-17T08:01:51.321Z,1.80
2023-05-17T08:04:18.688Z,1.40
2023-05-17T08:06:48.063Z,1.50
2023-05-17T08:09:16.141Z,2.20
2023-05-17T08:11:45.544Z,2.50
2023-05-17T08:14:15.656Z,1.20
2023-05-17T08:16:43.425Z,1.70
2023-05-17T08:19:12.564Z,1.90
2023-05-17T08:21:40.029Z,1.50
2023-05-17T08:24:09.509Z,1.60
2023-05-17T08:26:36.005Z,1.10
2023-05-17T08:29:03.122Z,1.40
2023-05-17T08:31:33.655Z,1.60
2023-05-17T08:34:00.337Z,1.20
2023-05-17T08:36:27.882Z,1.30
2023-05-17T08:38:54.032Z,1.40
2023-05-17T08:41:22.684Z,1.80
2023-05-17T08:43:50.275Z,1.70
2023-05-17T08:46:20.958Z,1.40
2023-05-17T08:48:51.488Z,1.40
2023-05-17T08:51:19.176Z,1.40
2023-05-17T08:53:46.434Z,1.30
2023-05-17T08:56:14.011Z,1.40
2023-05-17T08:58:55.672Z,1.50
2023-05-17T09:01:25.529Z,1.70
2023-05-17T09:03:53.110Z,1.10
2023-05-17T09:06:23.475Z,1.70
2023-05-17T09:08:52.293Z,1.00
2023-05-17T09:11:30.260Z,1.20
2023-05-17T09:14:01.134Z,1.40
2023-05-17T09:16:31.195Z,1.20
2023-05-17T09:18:58.547Z,1.20
2023-05-17T09:21:25.981Z,1.20
2023-05-17T09:24:04.647Z,1.30
2023-05-17T09:26:46.147Z,1.30
2023-05-17T09:29:14.549Z,1.10
2023-05-17T09:31:41.577Z,1.30
2023-05-17T09:34:11.013Z,1.30
2023-05-17T09:36:38.823Z,1.00
2023-05-17T09:39:12.595Z,0.90
2023-05-17T09:41:44.466Z,0.90
2023-05-17T09:44:12.426Z,0.80
2023-05-17T09:46:46.774Z,0.90
2023-05-17T09:49:13.964Z,1.40
2023-05-17T09:51:47.675Z,1.50
2023-05-17T09:54:14.450Z,0.80
2023-05-17T09:56:40.816Z,1.30
2023-05-17T09:59:12.414Z,1.30
2023-05-17T10:01:44.459Z,1.10
2023-05-17T10:04:11.778Z,1.10
2023-05-17T10:06:47.583Z,0.90
2023-05-17T10:09:16.527Z,1.00
2023-05-17T10:11:46.754Z,1.30
2023-05-17T10:14:25.001Z,1.10
2023-05-17T10:16:51.725Z,1.00
2023-05-17T10:19:19.682Z,1.00
2023-05-17T10:21:47.966Z,1.10
2023-05-17T10:24:14.528Z,1.10
2023-05-17T10:26:41.459Z,0.90
2023-05-17T10:29:10.536Z,1.10
2023-05-17T10:31:37.035Z,0.90
2023-05-17T10:34:06.901Z,1.00
2023-05-17T10:36:33.772Z,1.00
2023-05-17T10:39:00.414Z,1.00
2023-05-17T10:41:33.162Z,1.40
2023-05-17T10:44:02.114Z,1.50
2023-05-17T10:46:29.574Z,1.10
2023-05-17T10:48:58.612Z,1.10
2023-05-17T10:51:27.173Z,1.10
2023-05-17T10:54:12.064Z,1.10
2023-05-17T10:56:47.052Z,0.90
2023-05-17T10:59:23.939Z,1.10
2023-05-17T11:01:56.175Z,1.10
2023-05-17T11:04:25.328Z,1.30
2023-05-17T11:07:17.316Z,1.60
2023-05-17T11:09:44.701Z,1.30
2023-05-17T11:12:12.654Z,1.00
2023-05-17T11:14:45.189Z,0.70
2023-05-17T11:17:19.455Z,1.30
2023-05-17T11:19:50.457Z,1.30
2023-05-17T11:22:16.748Z,1.30
2023-05-17T11:24:44.860Z,1.30
2023-05-17T11:27:13.311Z,1.40
2023-05-17T11:29:41.775Z,1.30
2023-05-17T11:32:09.945Z,1.10
2023-05-17T11:34:36.175Z,0.90
2023-05-17T11:37:04.164Z,1.00
2023-05-17T11:39:30.912Z,2.00
2023-05-17T11:41:57.377Z,1.30
2023-05-17T11:44:27.164Z,1.30
2023-05-17T11:47:04.412Z,1.40
2023-05-17T11:49:35.861Z,1.50
2023-05-17T11:52:05.545Z,1.50
2023-05-17T11:54:32.038Z,1.90
2023-05-17T11:56:59.525Z,1.70
2023-05-17T11:59:25.929Z,1.90
2023-05-17T12:01:52.399Z,1.50
2023-05-17T12:04:25.933Z,1.30
2023-05-17T12:06:53.686Z,1.70
2023-05-17T12:09:20.704Z,1.70
2023-05-17T12:11:47.666Z,1.20
2023-05-17T12:14:19.880Z,1.60
2023-05-17T12:16:52.218Z,1.50
2023-05-17T12:19:24.317Z,1.80
2023-05-17T12:21:50.927Z,1.70
2023-05-17T12:24:17.200Z,1.90
2023-05-17T12:26:44.621Z,1.80
2023-05-17T12:29:15.535Z,1.50
2023-05-17T12:31:43.840Z,1.70
2023-05-17T12:34:14.904Z,1.80
2023-05-17T12:36:41.506Z,1.90
2023-05-17T12:39:09.580Z,1.90
2023-05-17T12:41:38.065Z,1.90
2023-05-17T12:44:14.815Z,1.60
2023-05-17T12:46:43.764Z,1.90
2023-05-17T12:49:11.515Z,1.80
2023-05-17T12:51:42.709Z,1.70
2023-05-17T12:54:08.913Z,2.00
2023-05-17T12:56:35.747Z,1.40
2023-05-17T12:59:13.237Z,2.00
2023-05-17T13:01:41.727Z,1.80
2023-05-17T13:04:07.998Z,2.20
2023-05-17T13:06:57.225Z,1.60
2023-05-17T13:09:25.919Z,2.10
2023-05-17T13:11:54.274Z,1.60
2023-05-17T13:14:58.908Z,1.80
2023-05-17T13:19:54.390Z,1.50
2023-05-17T13:22:20.671Z,1.80
2023-05-17T13:24:46.999Z,1.60
2023-05-17T13:27:13.423Z,2.10
2023-05-17T13:29:41.655Z,1.80
2023-05-17T13:32:09.823Z,1.50
2023-05-17T13:34:36.241Z,2.10
2023-05-17T13:37:06.299Z,1.80
2023-05-17T13:39:34.112Z,1.40
2023-05-17T13:42:00.585Z,1.80
2023-05-17T13:44:27.072Z,1.30
2023-05-17T13:46:53.196Z,1.80
2023-05-17T13:49:19.494Z,2.80
2023-05-17T13:51:45.994Z,1.40
2023-05-17T13:54:12.372Z,2.20
2023-05-17T13:56:38.475Z,2.10
2023-05-17T13:59:04.612Z,2.70
2023-05-17T14:01:30.874Z,1.70
2023-05-17T14:04:00.425Z,2.00
2023-05-17T14:06:27.023Z,1.80
2023-05-17T14:08:54.344Z,1.80
2023-05-17T14:11:23.212Z,1.80
2023-05-17T14:13:51.737Z,1.80
2023-05-17T14:16:17.903Z,1.90
2023-05-17T14:18:45.519Z,2.10
2023-05-17T14:21:11.909Z,1.60
2023-05-17T14:23:38.316Z,2.20
2023-05-17T14:26:06.902Z,2.30
2023-05-17T14:28:37.461Z,2.40
2023-05-17T14:31:05.670Z,2.00
2023-05-17T14:33:31.800Z,2.40
2023-05-17T14:35:58.093Z,1.80
2023-05-17T14:38:30.257Z,2.10
2023-05-17T14:40:57.529Z,2.00
2023-05-17T14:43:24.152Z,2.00
2023-05-17T14:45:52.843Z,2.10
2023-05-17T14:48:19.705Z,1.90
2023-05-17T14:50:46.124Z,2.10
2023-05-17T14:53:12.665Z,2.30
2023-05-17T14:55:38.830Z,2.00
2023-05-17T14:58:05.133Z,1.80
2023-05-17T15:00:31.367Z,2.00
2023-05-17T15:02:57.798Z,2.00
2023-05-17T15:05:24.696Z,2.10
2023-05-17T15:07:53.599Z,2.50
2023-05-17T15:10:23.309Z,1.60
2023-05-17T15:12:49.736Z,1.40
2023-05-17T15:15:16.067Z,1.90
2023-05-17T15:17:42.468Z,2.00
2023-05-17T15:20:10.259Z,2.20
2023-05-17T15:22:37.154Z,1.90
2023-05-17T15:25:06.854Z,1.90
2023-05-17T15:27:33.228Z,1.80
2023-05-17T15:29:59.620Z,1.90
2023-05-17T15:32:26.212Z,2.50
2023-05-17T15:34:52.431Z,1.70
2023-05-17T15:37:22.844Z,2.40
2023-05-17T15:39:49.149Z,2.00
2023-05-17T15:42:15.433Z,1.80
2023-05-17T15:44:41.556Z,2.10
2023-05-17T15:47:07.759Z,2.00
2023-05-17T15:49:34.199Z,1.80
2023-05-17T15:52:00.624Z,1.50
2023-05-17T15:54:26.849Z,2.30
2023-05-17T15:56:56.245Z,1.90
2023-05-17T15:59:22.547Z,1.70
2023-05-17T16:01:48.828Z,2.30
2023-05-17T16:04:15.594Z,1.50
2023-05-17T16:06:42.018Z,1.70
2023-05-17T16:09:08.564Z,2.10
2023-05-17T16:11:37.055Z,2.10
2023-05-17T16:14:03.376Z,1.80
2023-05-17T16:16:29.557Z,1.70
2023-05-17T16:18:57.076Z,1.70
2023-05-17T16:21:23.351Z,2.00
2023-05-17T16:23:49.515Z,1.90
2023-05-17T16:26:15.668Z,1.90
2023-05-17T16:28:42.106Z,1.90
2023-05-17T16:31:08.874Z,1.80
2023-05-17T16:33:35.728Z,1.50
2023-05-17T16:36:05.107Z,2.00
2023-05-17T16:38:31.381Z,1.90
2023-05-17T16:41:03.774Z,2.00
2023-05-17T16:43:30.654Z,1.80
2023-05-17T16:45:56.828Z,1.80
2023-05-17T16:48:23.186Z,2.10
2023-05-17T16:50:49.591Z,2.00
2023-05-17T16:53:18.486Z,1.80
2023-05-17T16:55:44.913Z,1.50
2023-05-17T16:58:11.365Z,1.70
2023-05-17T17:00:37.768Z,2.20
2023-05-17T17:03:05.932Z,1.80
2023-05-17T17:05:37.910Z,1.50
2023-05-17T17:08:04.147Z,2.00
2023-05-17T17:10:30.989Z,1.90
2023-05-17T17:12:57.575Z,1.90
2023-05-17T17:15:26.273Z,2.30
2023-05-17T17:17:52.478Z,1.50
2023-05-17T17:20:19.158Z,1.40
2023-05-17T17:22:45.572Z,3.20
2023-05-17T17:25:11.904Z,1.90
2023-05-17T17:27:38.103Z,1.60
2023-05-17T17:30:05.809Z,2.10
2023-05-17T17:32:32.631Z,1.90
2023-05-17T17:34:59.028Z,2.30
2023-05-17T17:37:25.651Z,2.20
2023-05-17T17:39:51.954Z,1.60
2023-05-17T17:42:18.923Z,4.20
2023-05-17T17:44:45.199Z,2.10
2023-05-17T17:47:11.630Z,1.90
2023-05-17T17:49:37.897Z,2.00
2023-05-17T17:52:04.480Z,2.30
2023-05-17T17:54:30.757Z,2.00
2023-05-17T17:56:57.859Z,2.30
2023-05-17T17:59:24.061Z,3.80
2023-05-17T18:01:50.533Z,2.20
2023-05-17T18:04:16.939Z,3.50
2023-05-17T18:06:45.259Z,2.20
2023-05-17T18:09:11.377Z,2.00
2023-05-17T18:11:37.824Z,1.80
2023-05-17T18:14:04.282Z,2.20
2023-05-17T18:16:33.036Z,1.70
2023-05-17T18:19:01.725Z,2.30
2023-05-17T18:21:29.296Z,2.20
2023-05-17T18:23:55.603Z,2.30
2023-05-17T18:26:22.690Z,1.90
2023-05-17T18:28:48.936Z,3.20
2023-05-17T18:31:15.134Z,2.00
2023-05-17T18:33:44.272Z,1.70
2023-05-17T18:36:12.870Z,1.70
2023-05-17T18:38:39.096Z,2.00
2023-05-17T18:41:05.240Z,1.90
2023-05-17T18:43:31.402Z,1.90
2023-05-17T18:45:57.583Z,2.10
2023-05-17T18:48:24.086Z,2.00
2023-05-17T18:50:50.360Z,2.10
2023-05-17T18:53:16.475Z,1.60
2023-05-17T18:55:45.331Z,1.60
2023-05-17T18:58:11.431Z,2.60
2023-05-17T19:00:37.573Z,1.70
2023-05-17T19:03:04.107Z,4.50
2023-05-17T19:05:30.516Z,2.10
2023-05-17T19:07:56.697Z,1.90
2023-05-17T19:10:23.291Z,1.60
2023-05-17T19:12:51.740Z,1.70
2023-05-17T19:15:18.798Z,1.80
2023-05-17T19:17:45.282Z,2.20
2023-05-17T19:20:12.097Z,1.50
2023-05-17T19:22:38.553Z,1.30
2023-05-17T19:25:05.438Z,1.60
2023-05-17T19:27:31.650Z,2.10
2023-05-17T19:29:57.690Z,1.20
2023-05-17T19:32:24.042Z,2.00
2023-05-17T19:34:54.313Z,1.90
2023-05-17T19:37:20.418Z,1.70
2023-05-17T19:39:46.520Z,1.60
2023-05-17T19:42:12.781Z,1.70
2023-05-17T19:44:41.405Z,1.80
2023-05-17T19:47:10.101Z,1.40
2023-05-17T19:49:36.245Z,1.50
2023-05-17T19:52:02.512Z,2.00
2023-05-17T19:54:29.254Z,1.60
2023-05-17T19:56:56.478Z,1.50
2023-05-17T19:59:22.722Z,1.50
2023-05-17T20:01:49.937Z,1.50
2023-05-17T20:04:16.205Z,1.90
2023-05-17T20:06:42.665Z,1.90
2023-05-17T20:09:09.225Z,2.10
2023-05-17T20:11:35.647Z,1.90
2023-05-17T20:14:01.793Z,1.60
2023-05-17T20:16:30.366Z,1.80
2023-05-17T20:19:00.272Z,1.70
2023-05-17T20:21:26.659Z,2.30
2023-05-17T20:24:00.803Z,1.20
2023-05-17T20:26:31.056Z,1.60
2023-05-17T20:28:58.401Z,1.90
2023-05-17T20:31:24.566Z,1.70
2023-05-17T20:33:50.949Z,2.00
2023-05-17T20:36:17.198Z,1.70
2023-05-17T20:38:43.452Z,2.10
2023-05-17T20:41:10.505Z,1.80
2023-05-17T20:43:36.655Z,1.80
2023-05-17T20:46:06.498Z,3.20
2023-05-17T20:48:33.656Z,1.70
2023-05-17T20:51:00.852Z,1.80
2023-05-17T20:53:30.245Z,1.60
2023-05-17T20:55:57.107Z,1.80
2023-05-17T20:58:28.340Z,1.70
2023-05-17T21:00:55.625Z,2.40
2023-05-17T21:03:22.447Z,1.70
2023-05-17T21:05:49.006Z,2.10
2023-05-17T21:08:15.082Z,1.50
2023-05-17T21:10:45.686Z,1.80
2023-05-17T21:13:13.966Z,2.20
2023-05-17T21:15:41.057Z,1.90
2023-05-17T21:18:11.233Z,1.90
2023-05-17T21:20:39.896Z,1.60
2023-05-17T21:23:06.111Z,1.60
2023-05-17T21:25:33.603Z,2.00
2023-05-17T21:28:02.426Z,2.00
2023-05-17T21:30:28.735Z,2.10
2023-05-17T21:32:55.603Z,1.60
2023-05-17T21:35:21.862Z,2.10
2023-05-17T21:37:48.105Z,2.50
2023-05-17T21:40:14.255Z,2.10
2023-05-17T21:42:42.813Z,2.10
2023-05-17T21:45:09.753Z,1.90
2023-05-17T21:47:36.121Z,1.40
2023-05-17T21:50:03.081Z,1.70
2023-05-17T21:52:29.176Z,2.10
2023-05-17T21:54:55.505Z,1.50
2023-05-17T21:57:21.666Z,1.80
2023-05-17T21:59:51.013Z,1.90
2023-05-17T22:02:20.368Z,1.80
2023-05-17T22:04:46.906Z,2.00
2023-05-17T22:07:13.494Z,1.60
2023-05-17T22:09:39.651Z,2.00
2023-05-17T22:12:07.973Z,1.70
2023-05-17T22:14:35.832Z,1.80
2023-05-17T22:17:07.570Z,1.80
2023-05-17T22:19:39.678Z,1.60
2023-05-17T22:22:08.770Z,1.70
2023-05-17T22:24:34.996Z,1.70
2023-05-17T22:27:01.801Z,1.60
2023-05-17T22:29:27.950Z,1.40
2023-05-17T22:31:54.219Z,2.00
2023-05-17T22:34:21.455Z,1.60
2023-05-17T22:36:47.508Z,1.90
2023-05-17T22:39:13.643Z,1.60
2023-05-17T22:41:39.881Z,2.50
2023-05-17T22:44:06.007Z,2.20
2023-05-17T22:46:32.877Z,1.90
2023-05-17T22:48:58.988Z,1.70
2023-05-17T22:51:25.735Z,1.70
2023-05-17T22:53:51.912Z,1.70
2023-05-17T22:56:20.896Z,2.10
2023-05-17T22:58:47.112Z,3.40
2023-05-17T23:01:14.396Z,2.00
2023-05-17T23:03:40.842Z,1.70
2023-05-17T23:06:08.163Z,1.80
2023-05-17T23:08:34.485Z,1.60
2023-05-17T23:11:01.144Z,1.60
2023-05-17T23:13:27.421Z,1.80
2023-05-17T23:15:53.718Z,1.70
2023-05-17T23:18:20.282Z,1.90
2023-05-17T23:20:49.289Z,2.00
2023-05-17T23:23:15.833Z,2.10
2023-05-17T23:25:44.264Z,1.60
2023-05-17T23:28:10.943Z,1.70
2023-05-17T23:30:39.656Z,2.30
2023-05-17T23:33:05.947Z,1.40
2023-05-17T23:35:32.254Z,1.70
2023-05-17T23:37:59.289Z,1.30
2023-05-17T23:40:25.522Z,2.50
2023-05-17T23:42:51.736Z,1.80
2023-05-17T23:45:17.909Z,1.60
2023-05-17T23:47:46.892Z,1.50
2023-05-17T23:50:13.022Z,2.00
2023-05-17T23:52:39.366Z,2.00
2023-05-17T23:55:06.923Z,2.30
2023-05-17T23:57:33.887Z,2.80
